Time;durP1;ratioP1;P1;durP2;ratioP2;P2;SDS_P1;SDS_P2;PMS_P1;PMS_P2;Temp;Humidity;BMP_temperature;BMP_pressure;BME280_temperature;BME280_humidity;BME280_pressure;Samples;Min_cycle;Max_cycle;Signal;HPM_P1;HPM_P2
2024/01/17 00:01:54;;;;;;;52.00;20.70;;;;;;;-128.00;-1.00;-1.00;131946;1275;1005214;-81
2024/01/17 00:04:56;;;;;;;55.80;23.70;;;;;;;-128.00;-1.00;-1.00;131917;1275;1004901;-81
2024/01/17 00:07:59;;;;;;;51.90;21.40;;;;;;;-128.00;-1.00;-1.00;131916;1274;1004789;-82
2024/01/17 00:11:01;;;;;;;53.70;23.00;;;;;;;-128.00;-1.00;-1.00;131902;1274;1004383;-81
2024/01/17 00:14:04;;;;;;;52.60;22.90;;;;;;;-128.00;-1.00;-1.00;131927;1275;1006075;-81
2024/01/17 00:17:06;;;;;;;52.00;21.50;;;;;;;-128.00;-1.00;-1.00;131941;1275;1004927;-82
2024/01/17 00:20:09;;;;;;;46.70;20.60;;;;;;;-128.00;-1.00;-1.00;131918;1274;1004054;-82
2024/01/17 00:23:11;;;;;;;67.00;26.40;;;;;;;-128.00;-1.00;-1.00;131914;1274;1004002;-82
2024/01/17 00:26:14;;;;;;;46.30;21.00;;;;;;;-128.00;-1.00;-1.00;131896;1275;1003716;-81
2024/01/17 00:29:16;;;;;;;54.40;23.30;;;;;;;-128.00;-1.00;-1.00;131971;1275;1004714;-80
2024/01/17 00:32:19;;;;;;;54.20;22.40;;;;;;;-128.00;-1.00;-1.00;131926;1275;1004088;-81
2024/01/17 00:35:21;;;;;;;59.40;24.00;;;;;;;-128.00;-1.00;-1.00;131991;1274;1003985;-81
2024/01/17 00:38:24;;;;;;;47.30;21.80;;;;;;;-128.00;-1.00;-1.00;131919;1275;1004306;-82
2024/01/17 00:41:26;;;;;;;53.00;22.20;;;;;;;-128.00;-1.00;-1.00;131969;1275;1004139;-81
2024/01/17 00:44:29;;;;;;;52.80;21.60;;;;;;;-128.00;-1.00;-1.00;131961;1275;1004046;-81
2024/01/17 00:47:31;;;;;;;54.70;23.60;;;;;;;-128.00;-1.00;-1.00;131904;1274;1004094;-81
2024/01/17 00:50:34;;;;;;;51.80;23.10;;;;;;;-128.00;-1.00;-1.00;131967;1253;1005453;-81
2024/01/17 00:53:37;;;;;;;59.40;23.90;;;;;;;-128.00;-1.00;-1.00;131946;1275;1005183;-82
2024/01/17 00:56:39;;;;;;;61.80;24.70;;;;;;;-128.00;-1.00;-1.00;131920;1274;1006027;-81
2024/01/17 00:59:42;;;;;;;64.50;28.20;;;;;;;-128.00;-1.00;-1.00;132001;1274;1004800;-81
2024/01/17 01:02:44;;;;;;;65.70;28.00;;;;;;;-128.00;-1.00;-1.00;131937;1275;1004344;-81
2024/01/17 01:05:47;;;;;;;71.80;30.20;;;;;;;-128.00;-1.00;-1.00;131967;1275;1004827;-82
2024/01/17 01:08:49;;;;;;;67.70;27.70;;;;;;;-128.00;-1.00;-1.00;131995;1275;1004071;-81
2024/01/17 01:11:52;;;;;;;60.80;26.30;;;;;;;-128.00;-1.00;-1.00;132207;1275;1003513;-81
2024/01/17 01:14:54;;;;;;;64.60;27.50;;;;;;;-128.00;-1.00;-1.00;132134;1275;1002949;-81
2024/01/17 01:17:56;;;;;;;66.50;29.70;;;;;;;-128.00;-1.00;-1.00;132199;1275;1002417;-81
2024/01/17 01:20:59;;;;;;;68.40;28.40;;;;;;;-128.00;-1.00;-1.00;132349;1275;1003013;-83
2024/01/17 01:24:01;;;;;;;60.50;27.40;;;;;;;-128.00;-1.00;-1.00;132113;1275;1002932;-82
2024/01/17 01:27:04;;;;;;;64.80;26.00;;;;;;;-128.00;-1.00;-1.00;132031;1275;1003939;-82
2024/01/17 01:30:07;;;;;;;57.60;25.70;;;;;;;-128.00;-1.00;-1.00;131999;1275;1002738;-81
2024/01/17 01:33:09;;;;;;;69.40;28.10;;;;;;;-131.14;19.20;21852.17;132015;1275;1002433;-82
2024/01/17 01:36:11;;;;;;;64.50;26.70;;;;;;;-128.00;-1.00;-1.00;132235;1275;1004423;-81
2024/01/17 01:39:14;;;;;;;58.40;25.50;;;;;;;-128.00;-1.00;-1.00;132712;1275;1004558;-86
2024/01/17 01:42:17;;;;;;;70.20;27.20;;;;;;;-128.00;-1.00;-1.00;132857;1275;1003956;-86
2024/01/17 01:45:19;;;;;;;67.10;26.50;;;;;;;-131.14;-0.80;21852.17;132904;1275;1005651;-86
2024/01/17 01:48:22;;;;;;;66.30;24.70;;;;;;;-128.00;-1.00;-1.00;131995;1275;1004928;-86
2024/01/17 01:51:24;;;;;;;57.80;23.10;;;;;;;-131.14;19.20;21852.17;132777;1275;1003094;-86
2024/01/17 01:54:27;;;;;;;67.90;24.70;;;;;;;-128.00;-1.00;-1.00;132086;1275;1003002;-86
2024/01/17 01:57:29;;;;;;;54.50;22.00;;;;;;;-128.00;-1.00;-1.00;132102;1275;1002435;-86
2024/01/17 02:00:32;;;;;;;57.50;24.30;;;;;;;-131.14;19.20;21852.17;131401;1275;1003777;-86
2024/01/17 02:03:34;;;;;;;54.90;22.70;;;;;;;-128.00;-1.00;-1.00;131951;1275;1005105;-86
2024/01/17 02:06:37;;;;;;;58.10;25.40;;;;;;;-128.00;-1.00;-1.00;131974;1275;1004604;-82
2024/01/17 02:09:39;;;;;;;50.10;22.20;;;;;;;-128.00;-1.00;-1.00;131916;1275;1004888;-83
2024/01/17 02:12:41;;;;;;;56.00;24.40;;;;;;;-128.00;-1.00;-1.00;131902;1275;1003711;-85
2024/01/17 02:15:44;;;;;;;62.10;24.30;;;;;;;-128.00;-1.00;-1.00;131925;1253;1004448;-86
2024/01/17 02:18:49;;;;;;;65.70;24.70;;;;;;;-128.00;-1.00;-1.00;131990;1275;1005067;-86
2024/01/17 02:21:51;;;;;;;63.50;24.90;;;;;;;-128.00;-1.00;-1.00;131951;1274;1004375;-86
2024/01/17 02:24:53;;;;;;;49.30;21.20;;;;;;;-128.00;-1.00;-1.00;131962;1274;1003952;-81
2024/01/17 02:27:56;;;;;;;58.90;24.80;;;;;;;-128.00;-1.00;-1.00;131873;1274;1005065;-81
2024/01/17 02:30:58;;;;;;;60.30;23.30;;;;;;;-128.00;-1.00;-1.00;131939;1274;1004154;-81
2024/01/17 02:34:01;;;;;;;52.50;22.00;;;;;;;-128.00;-1.00;-1.00;131960;1274;1004081;-78
2024/01/17 02:37:03;;;;;;;58.70;24.50;;;;;;;-128.00;-1.00;-1.00;131988;1274;1005403;-81
2024/01/17 02:40:06;;;;;;;54.40;24.90;;;;;;;-128.00;-1.00;-1.00;131939;1274;1004327;-81
2024/01/17 02:43:08;;;;;;;59.20;24.70;;;;;;;-128.00;-1.00;-1.00;131798;1274;1004859;-80
2024/01/17 02:46:11;;;;;;;65.80;26.60;;;;;;;-128.00;-1.00;-1.00;131808;1274;1005131;-81
2024/01/17 02:49:19;;;;;;;57.10;22.40;;;;;;;-128.00;-1.00;-1.00;131874;1274;1004782;-82
2024/01/17 02:52:21;;;;;;;60.60;23.70;;;;;;;-128.00;-1.00;-1.00;131903;1274;1004131;-82
2024/01/17 02:55:24;;;;;;;60.90;24.40;;;;;;;-128.00;-1.00;-1.00;131834;1274;1005293;-82
2024/01/17 02:58:26;;;;;;;56.20;23.30;;;;;;;-128.00;-1.00;-1.00;131869;1274;1004735;-81
2024/01/17 03:01:29;;;;;;;59.50;23.40;;;;;;;-128.00;-1.00;-1.00;131834;1274;1004435;-82
2024/01/17 03:04:31;;;;;;;58.70;24.00;;;;;;;-128.00;-1.00;-1.00;131919;1274;1004337;-82
2024/01/17 03:07:34;;;;;;;59.30;25.10;;;;;;;-128.00;-1.00;-1.00;131846;1274;1004436;-81
2024/01/17 03:10:36;;;;;;;53.80;22.60;;;;;;;-128.00;-1.00;-1.00;131923;1274;1003797;-85
2024/01/17 03:13:39;;;;;;;58.00;23.80;;;;;;;-128.00;-1.00;-1.00;132009;1252;1005277;-82
2024/01/17 03:16:41;;;;;;;57.10;24.50;;;;;;;-128.00;-1.00;-1.00;131865;1275;1004704;-82
2024/01/17 03:19:43;;;;;;;49.00;21.40;;;;;;;-128.00;-1.00;-1.00;131887;1274;1004611;-82
2024/01/17 03:22:46;;;;;;;55.50;23.30;;;;;;;-128.00;-1.00;-1.00;131953;1275;1004643;-81
2024/01/17 03:25:51;;;;;;;52.00;22.30;;;;;;;-128.00;-1.00;-1.00;131916;1275;1004602;-80
2024/01/17 03:28:53;;;;;;;64.70;24.20;;;;;;;-128.00;-1.00;-1.00;131905;1274;1007451;-80
2024/01/17 03:31:56;;;;;;;59.60;26.60;;;;;;;-128.00;-1.00;-1.00;131950;1275;1004932;-81
2024/01/17 03:34:58;;;;;;;63.70;26.70;;;;;;;-128.00;-1.00;-1.00;131905;1275;1004341;-81
2024/01/17 03:38:00;;;;;;;57.70;25.40;;;;;;;-128.00;-1.00;-1.00;132397;1274;1004417;-80
2024/01/17 03:41:04;;;;;;;55.70;23.60;;;;;;;-128.00;-1.00;-1.00;132624;1274;1004405;-77
2024/01/17 03:44:09;;;;;;;51.10;22.90;;;;;;;-128.00;-1.00;-1.00;132325;1274;1005315;-79
2024/01/17 03:47:13;;;;;;;57.60;24.80;;;;;;;-128.00;-1.00;-1.00;132107;1275;1004115;-80
2024/01/17 03:50:16;;;;;;;57.20;24.80;;;;;;;-128.00;-1.00;-1.00;131862;1275;1003653;-84
2024/01/17 03:53:18;;;;;;;56.10;23.90;;;;;;;-128.00;-1.00;-1.00;132009;1275;1004572;-84
2024/01/17 03:56:21;;;;;;;51.30;23.50;;;;;;;-128.00;-1.00;-1.00;131865;1274;1005896;-85
2024/01/17 03:59:23;;;;;;;59.40;23.50;;;;;;;-128.00;-1.00;-1.00;131998;1274;1004924;-82
2024/01/17 04:02:26;;;;;;;57.40;24.70;;;;;;;-128.00;-1.00;-1.00;132112;1274;1003993;-83
2024/01/17 04:05:28;;;;;;;59.00;25.30;;;;;;;-128.00;-1.00;-1.00;132075;1274;1004580;-83
2024/01/17 04:08:31;;;;;;;58.60;23.30;;;;;;;-128.00;-1.00;-1.00;132141;1274;1003754;-82
2024/01/17 04:11:33;;;;;;;59.40;30.60;;;;;;;-128.00;-1.00;-1.00;131979;1275;1004030;-84
2024/01/17 04:14:38;;;;;;;58.20;26.70;;;;;;;-128.00;-1.00;-1.00;131912;1275;1006674;-83
2024/01/17 04:17:40;;;;;;;59.10;25.50;;;;;;;-128.00;-1.00;-1.00;132011;1274;1004481;-84
2024/01/17 04:20:43;;;;;;;58.40;25.90;;;;;;;-128.00;-1.00;-1.00;131808;1274;1004741;-84
2024/01/17 04:23:45;;;;;;;64.10;27.50;;;;;;;-128.00;-1.00;-1.00;131978;1275;1004969;-79
2024/01/17 04:26:48;;;;;;;67.10;28.90;;;;;;;-128.00;-1.00;-1.00;131694;1274;1003849;-83
2024/01/17 04:29:50;;;;;;;66.30;29.00;;;;;;;-128.00;-1.00;-1.00;132426;1275;1004909;-83
2024/01/17 04:32:52;;;;;;;69.50;29.10;;;;;;;-128.00;-1.00;-1.00;132227;1275;1004015;-83
2024/01/17 04:35:55;;;;;;;64.00;28.60;;;;;;;-128.00;-1.00;-1.00;131644;1275;1005038;-81
2024/01/17 04:38:57;;;;;;;56.00;27.50;;;;;;;-128.00;-1.00;-1.00;131731;1275;1002742;-84
2024/01/17 04:42:00;;;;;;;61.90;26.80;;;;;;;-131.14;-0.80;21852.17;133071;1274;1003955;-84
2024/01/17 04:45:03;;;;;;;60.30;26.10;;;;;;;-128.00;-1.00;-1.00;132326;1274;1003921;-85
2024/01/17 04:48:07;;;;;;;59.20;25.90;;;;;;;-128.00;-1.00;-1.00;132172;1275;1004422;-84
2024/01/17 04:51:10;;;;;;;55.30;24.50;;;;;;;-128.00;-1.00;-1.00;132163;1274;1004311;-83
2024/01/17 04:54:13;;;;;;;61.30;27.80;;;;;;;-128.00;-1.00;-1.00;132098;1275;1005038;-83
2024/01/17 04:57:15;;;;;;;57.80;25.30;;;;;;;-128.00;-1.00;-1.00;132082;1274;1004364;-82
2024/01/17 05:00:18;;;;;;;60.50;27.60;;;;;;;-128.00;-1.00;-1.00;132166;1274;1005344;-82
2024/01/17 05:03:20;;;;;;;61.70;26.50;;;;;;;-128.00;-1.00;-1.00;132338;1274;1003572;-83
2024/01/17 05:06:23;;;;;;;54.70;23.70;;;;;;;-128.00;-1.00;-1.00;132219;1275;1004798;-83
2024/01/17 05:09:26;;;;;;;58.00;24.80;;;;;;;-128.00;-1.00;-1.00;132418;1275;1007274;-83
2024/01/17 05:12:28;;;;;;;57.20;25.10;;;;;;;-128.00;-1.00;-1.00;132550;1275;1005109;-83
2024/01/17 05:15:31;;;;;;;55.70;24.00;;;;;;;-128.00;-1.00;-1.00;132624;1275;1004203;-83
2024/01/17 05:18:33;;;;;;;52.80;23.60;;;;;;;-128.00;-1.00;-1.00;132544;1274;1003966;-82
2024/01/17 05:21:36;;;;;;;51.30;23.40;;;;;;;-128.00;-1.00;-1.00;131170;1275;1004091;-82
2024/01/17 05:24:40;;;;;;;54.40;23.70;;;;;;;-128.00;-1.00;-1.00;132744;1275;1004942;-83
2024/01/17 05:27:50;;;;;;;48.90;24.10;;;;;;;-128.00;-1.00;-1.00;132394;1275;1004174;-80
2024/01/17 05:30:52;;;;;;;56.90;23.30;;;;;;;-128.00;-1.00;-1.00;131332;1275;1003949;-84
2024/01/17 05:33:55;;;;;;;59.60;24.10;;;;;;;-128.00;-1.00;-1.00;132435;1275;1003784;-82
2024/01/17 05:36:57;;;;;;;57.20;22.80;;;;;;;-128.00;-1.00;-1.00;132727;1275;1004556;-83
2024/01/17 05:39:59;;;;;;;48.00;22.00;;;;;;;-128.00;-1.00;-1.00;133136;1275;1004428;-83
2024/01/17 05:43:02;;;;;;;58.40;23.90;;;;;;;-128.00;-1.00;-1.00;133342;1274;1004543;-81
2024/01/17 05:46:04;;;;;;;55.40;24.30;;;;;;;-128.00;-1.00;-1.00;133281;1275;1004009;-82
2024/01/17 05:49:09;;;;;;;54.50;23.90;;;;;;;-128.00;-1.00;-1.00;132860;1275;1003351;-81
2024/01/17 05:52:11;;;;;;;56.90;23.50;;;;;;;-128.00;-1.00;-1.00;132531;1275;1004443;-79
2024/01/17 05:55:14;;;;;;;63.50;25.60;;;;;;;-128.00;-1.00;-1.00;131246;1275;1005643;-82
2024/01/17 05:58:17;;;;;;;53.80;25.60;;;;;;;-128.00;-1.00;-1.00;132751;1275;1004699;-81
2024/01/17 06:01:19;;;;;;;61.20;25.90;;;;;;;-128.00;-1.00;-1.00;132831;1275;1004259;-81
2024/01/17 06:04:22;;;;;;;56.00;28.00;;;;;;;-128.00;-1.00;-1.00;132758;1274;1004898;-80
2024/01/17 06:07:24;;;;;;;63.60;26.70;;;;;;;-128.00;-1.00;-1.00;131144;1275;1004734;-78
2024/01/17 06:10:28;;;;;;;50.00;22.70;;;;;;;-128.00;-1.00;-1.00;131055;1274;1004509;-83
2024/01/17 06:13:31;;;;;;;53.90;25.30;;;;;;;-128.00;-1.00;-1.00;131213;1275;1004826;-83
2024/01/17 06:16:33;;;;;;;55.10;25.70;;;;;;;-128.00;-1.00;-1.00;132751;1275;1003717;-80
2024/01/17 06:19:36;;;;;;;55.70;23.90;;;;;;;-128.00;-1.00;-1.00;131117;1275;1004363;-78
2024/01/17 06:22:38;;;;;;;68.00;26.60;;;;;;;-128.00;-1.00;-1.00;130999;1275;1005213;-81
2024/01/17 06:25:41;;;;;;;57.20;26.60;;;;;;;-128.00;-1.00;-1.00;132679;1275;1004420;-80
2024/01/17 06:28:44;;;;;;;54.50;24.50;;;;;;;-128.00;-1.00;-1.00;132689;1275;1005006;-81
2024/01/17 06:31:46;;;;;;;54.20;23.60;;;;;;;-128.00;-1.00;-1.00;132693;1253;1003911;-80
2024/01/17 06:34:49;;;;;;;57.10;25.80;;;;;;;-128.00;-1.00;-1.00;131160;1275;1004419;-81
2024/01/17 06:37:51;;;;;;;59.70;26.00;;;;;;;-128.00;-1.00;-1.00;132659;1275;1004049;-83
2024/01/17 06:40:54;;;;;;;58.10;27.10;;;;;;;-128.00;-1.00;-1.00;132697;1274;1004310;-81
2024/01/17 06:43:56;;;;;;;56.00;23.80;;;;;;;-128.00;-1.00;-1.00;132993;1275;1004151;-81
2024/01/17 06:46:59;;;;;;;52.80;23.50;;;;;;;-128.00;-1.00;-1.00;132788;1275;1003686;-80
2024/01/17 06:50:01;;;;;;;58.30;25.80;;;;;;;-128.00;-1.00;-1.00;131055;1275;1004138;-81
2024/01/17 06:53:04;;;;;;;53.80;25.00;;;;;;;-128.00;-1.00;-1.00;131122;1259;1004221;-81
2024/01/17 06:56:06;;;;;;;62.40;26.80;;;;;;;-128.00;-1.00;-1.00;131281;1275;1005099;-81
2024/01/17 06:59:08;;;;;;;60.40;24.70;;;;;;;-128.00;-1.00;-1.00;131119;1275;1004030;-81
2024/01/17 07:02:11;;;;;;;50.60;23.40;;;;;;;-128.00;-1.00;-1.00;132627;1275;1004145;-79
2024/01/17 07:05:13;;;;;;;54.80;25.50;;;;;;;-128.00;-1.00;-1.00;131015;1275;1004124;-81
2024/01/17 07:08:16;;;;;;;56.40;25.20;;;;;;;-128.00;-1.00;-1.00;132820;1274;1004503;-82
2024/01/17 07:11:19;;;;;;;61.20;27.30;;;;;;;-128.00;-1.00;-1.00;132928;1274;1004624;-81
2024/01/17 07:14:21;;;;;;;53.70;24.50;;;;;;;-128.00;-1.00;-1.00;131156;1274;1005770;-80
2024/01/17 07:17:24;;;;;;;61.80;27.60;;;;;;;-128.00;-1.00;-1.00;131193;1274;1004172;-80
2024/01/17 07:20:26;;;;;;;54.40;25.00;;;;;;;-128.00;-1.00;-1.00;131279;1274;1004023;-82
2024/01/17 07:23:29;;;;;;;54.00;22.70;;;;;;;-128.00;-1.00;-1.00;132682;1274;1004960;-81
2024/01/17 07:26:31;;;;;;;60.00;27.00;;;;;;;-128.00;-1.00;-1.00;131371;1274;1006711;-82
2024/01/17 07:29:35;;;;;;;55.30;24.90;;;;;;;-128.00;-1.00;-1.00;131968;1274;1004002;-84
2024/01/17 07:32:38;;;;;;;49.00;24.10;;;;;;;-128.00;-1.00;-1.00;132210;1275;1004622;-82
2024/01/17 07:35:40;;;;;;;55.50;24.80;;;;;;;-128.00;-1.00;-1.00;132233;1275;1004808;-83
2024/01/17 07:38:43;;;;;;;51.00;23.30;;;;;;;-128.00;-1.00;-1.00;132636;1274;1004231;-80
2024/01/17 07:41:48;;;;;;;53.00;23.90;;;;;;;-128.00;-1.00;-1.00;132958;1274;1004343;-81
2024/01/17 07:44:50;;;;;;;45.30;22.10;;;;;;;-128.00;-1.00;-1.00;133351;1275;1003960;-80
2024/01/17 07:47:53;;;;;;;49.60;22.80;;;;;;;-128.00;-1.00;-1.00;133382;1275;1004589;-79
2024/01/17 07:50:56;;;;;;;58.00;25.60;;;;;;;-128.00;-1.00;-1.00;132924;1274;1004439;-80
2024/01/17 07:53:58;;;;;;;46.30;23.30;;;;;;;-128.00;-1.00;-1.00;131065;1275;1004658;-81
2024/01/17 07:57:01;;;;;;;52.00;24.00;;;;;;;-128.00;-1.00;-1.00;132691;1275;1004751;-82
2024/01/17 08:00:04;;;;;;;49.10;22.80;;;;;;;-128.00;-1.00;-1.00;132828;1275;1005034;-82
2024/01/17 08:03:07;;;;;;;70.30;41.70;;;;;;;-128.00;-1.00;-1.00;132519;1274;1004337;-81
2024/01/17 08:06:09;;;;;;;44.50;22.90;;;;;;;-128.00;-1.00;-1.00;132412;1275;1005222;-83
2024/01/17 08:09:20;;;;;;;48.90;22.80;;;;;;;-128.00;-1.00;-1.00;132693;1275;1004451;-81
2024/01/17 08:12:23;;;;;;;51.00;23.10;;;;;;;-128.00;-1.00;-1.00;132600;1275;1005032;-82
2024/01/17 08:15:26;;;;;;;46.50;22.80;;;;;;;-128.00;-1.00;-1.00;132482;1275;1003899;-81
2024/01/17 08:18:28;;;;;;;48.30;21.60;;;;;;;-128.00;-1.00;-1.00;132550;1275;1003857;-81
2024/01/17 08:21:31;;;;;;;46.80;23.90;;;;;;;-128.00;-1.00;-1.00;132362;1275;1004697;-82
2024/01/17 08:24:33;;;;;;;46.60;23.60;;;;;;;-128.00;-1.00;-1.00;132726;1275;1004432;-79
2024/01/17 08:27:36;;;;;;;50.90;23.90;;;;;;;-128.00;-1.00;-1.00;131125;1275;1003643;-79
2024/01/17 08:30:38;;;;;;;48.90;24.20;;;;;;;-128.00;-1.00;-1.00;131110;1274;1004991;-79
2024/01/17 08:33:40;;;;;;;46.30;22.10;;;;;;;-128.00;-1.00;-1.00;131137;1275;1004995;-80
2024/01/17 08:36:43;;;;;;;41.70;19.70;;;;;;;-128.00;-1.00;-1.00;132520;1275;1003875;-78
2024/01/17 08:39:46;;;;;;;43.00;22.40;;;;;;;-128.00;-1.00;-1.00;131147;1275;1004787;-80
2024/01/17 08:42:49;;;;;;;50.70;24.80;;;;;;;-128.00;-1.00;-1.00;132792;1275;1004442;-83
2024/01/17 08:45:51;;;;;;;44.70;23.00;;;;;;;-128.00;-1.00;-1.00;132808;1275;1005073;-80
2024/01/17 08:48:54;;;;;;;47.20;23.10;;;;;;;-128.00;-1.00;-1.00;132804;1275;1004261;-81
2024/01/17 08:51:57;;;;;;;49.80;22.60;;;;;;;-128.00;-1.00;-1.00;132667;1275;1004949;-82
2024/01/17 08:55:02;;;;;;;51.90;23.70;;;;;;;-128.00;-1.00;-1.00;132656;1275;1002315;-81
2024/01/17 08:58:04;;;;;;;40.50;20.50;;;;;;;-128.00;-1.00;-1.00;132472;1274;1004300;-83
2024/01/17 09:01:07;;;;;;;45.70;22.70;;;;;;;-134.28;39.40;43705.34;131609;1275;1004123;-82
2024/01/17 09:04:09;;;;;;;42.60;21.60;;;;;;;-128.00;-1.00;-1.00;132933;1275;1004056;-81
2024/01/17 09:07:13;;;;;;;43.60;22.10;;;;;;;-128.00;-1.00;-1.00;131153;1275;1003398;-81
2024/01/17 09:10:17;;;;;;;45.10;22.60;;;;;;;-128.00;-1.00;-1.00;132740;1275;1004220;-82
2024/01/17 09:13:19;;;;;;;39.40;19.90;;;;;;;-128.00;-1.00;-1.00;132915;1274;1004890;-81
2024/01/17 09:16:22;;;;;;;41.90;22.00;;;;;;;-128.00;-1.00;-1.00;132808;1275;1003953;-80
2024/01/17 09:19:24;;;;;;;45.50;21.40;;;;;;;-128.00;-1.00;-1.00;131241;1275;1005212;-82
2024/01/17 09:22:27;;;;;;;40.20;22.40;;;;;;;-128.00;-1.00;-1.00;131093;1275;1004467;-81
2024/01/17 09:25:29;;;;;;;43.90;21.60;;;;;;;-128.00;-1.00;-1.00;131087;1275;1004037;-81
2024/01/17 09:28:32;;;;;;;43.50;21.00;;;;;;;-128.00;-1.00;-1.00;133095;1275;1004232;-82
2024/01/17 09:31:34;;;;;;;37.00;20.80;;;;;;;-128.00;-1.00;-1.00;133035;1275;1005383;-81
2024/01/17 09:34:37;;;;;;;38.90;20.80;;;;;;;-128.00;-1.00;-1.00;132679;1275;1003553;-81
2024/01/17 09:37:39;;;;;;;39.80;19.80;;;;;;;-128.00;-1.00;-1.00;132572;1275;1004377;-81
2024/01/17 09:40:43;;;;;;;32.40;19.00;;;;;;;-128.00;-1.00;-1.00;132680;1275;1004086;-81
2024/01/17 09:43:45;;;;;;;38.90;21.00;;;;;;;-131.14;19.20;21852.17;134266;1275;1002016;-81
2024/01/17 09:46:48;;;;;;;40.50;20.80;;;;;;;-128.00;-1.00;-1.00;133429;1259;1002703;-81
2024/01/17 09:49:50;;;;;;;35.70;18.70;;;;;;;-128.00;-1.00;-1.00;133332;1275;1004966;-81
2024/01/17 09:52:52;;;;;;;35.90;19.60;;;;;;;-131.14;19.20;21852.17;133909;1275;1004227;-82
2024/01/17 09:55:55;;;;;;;39.30;20.80;;;;;;;-131.14;19.20;21852.17;133722;1275;1003464;-82
2024/01/17 09:58:58;;;;;;;37.80;20.10;;;;;;;-128.00;-1.00;-1.00;132629;1275;1004271;-83
2024/01/17 10:02:00;;;;;;;39.90;19.40;;;;;;;-128.00;-1.00;-1.00;132546;1253;1002624;-84
2024/01/17 10:05:04;;;;;;;37.00;20.30;;;;;;;-128.00;-1.00;-1.00;132336;1275;1004757;-82
2024/01/17 10:08:07;;;;;;;43.00;22.50;;;;;;;-128.00;-1.00;-1.00;132405;1275;1004159;-81
2024/01/17 10:11:10;;;;;;;37.50;20.60;;;;;;;-128.00;-1.00;-1.00;132492;1275;1003941;-80
2024/01/17 10:14:12;;;;;;;38.30;20.20;;;;;;;-128.00;-1.00;-1.00;132678;1275;1004453;-77
2024/01/17 10:17:15;;;;;;;43.70;20.80;;;;;;;-128.00;-1.00;-1.00;131339;1275;1004378;-84
2024/01/17 10:20:18;;;;;;;40.10;19.90;;;;;;;-128.00;-1.00;-1.00;132567;1275;1002771;-83
2024/01/17 10:23:20;;;;;;;42.60;20.90;;;;;;;-128.00;-1.00;-1.00;132361;1275;1005294;-83
2024/01/17 10:26:22;;;;;;;42.10;21.50;;;;;;;-131.14;19.20;21852.17;133578;1275;1004168;-82
2024/01/17 10:29:25;;;;;;;41.40;22.10;;;;;;;-137.41;59.60;65558.51;134833;1275;1002748;-80
2024/01/17 10:32:28;;;;;;;37.80;20.90;;;;;;;-131.14;19.20;21852.17;133710;1275;1004645;-82
2024/01/17 10:35:30;;;;;;;42.00;21.30;;;;;;;-128.00;-1.00;-1.00;132628;1275;1002791;-84
2024/01/17 10:38:33;;;;;;;43.60;20.70;;;;;;;-131.14;19.20;21852.17;133584;1275;1004358;-83
2024/01/17 10:41:36;;;;;;;39.40;20.90;;;;;;;-137.41;59.60;65558.51;134066;1274;1001906;-82
2024/01/17 10:44:38;;;;;;;37.90;21.30;;;;;;;-131.14;19.20;21852.17;133425;1275;1002786;-82
2024/01/17 10:47:41;;;;;;;37.60;21.00;;;;;;;-134.28;39.40;43705.34;134370;1274;1003082;-81
2024/01/17 10:50:44;;;;;;;36.60;20.50;;;;;;;-128.00;-1.00;-1.00;132741;1274;1005036;-81
2024/01/17 10:53:46;;;;;;;41.10;22.40;;;;;;;-128.00;-1.00;-1.00;132657;1274;1004491;-81
2024/01/17 10:56:49;;;;;;;37.20;21.00;;;;;;;-128.00;-1.00;-1.00;132543;1274;1004234;-82
2024/01/17 10:59:53;;;;;;;35.40;21.10;;;;;;;-128.00;-1.00;-1.00;132551;1274;1005343;-82
2024/01/17 11:02:55;;;;;;;37.20;21.00;;;;;;;-128.00;-1.00;-1.00;132568;1275;1004960;-82
2024/01/17 11:05:58;;;;;;;38.00;21.20;;;;;;;-128.00;-1.00;-1.00;132395;1275;1005184;-82
2024/01/17 11:09:01;;;;;;;42.90;21.30;;;;;;;-128.00;-1.00;-1.00;132441;1274;1005211;-83
2024/01/17 11:12:03;;;;;;;39.60;20.80;;;;;;;-128.00;-1.00;-1.00;132608;1274;1004333;-82
2024/01/17 11:15:06;;;;;;;32.60;17.60;;;;;;;-128.00;-1.00;-1.00;132757;1274;1004335;-84
2024/01/17 11:18:11;;;;;;;38.90;20.00;;;;;;;-128.00;-1.00;-1.00;132698;1274;1004402;-84
2024/01/17 11:21:24;;;;;;;35.20;18.40;;;;;;;-128.00;-1.00;-1.00;132721;1275;1004374;-85
2024/01/17 11:24:39;;;;;;;32.90;18.40;;;;;;;-128.00;-1.00;-1.00;133129;1269;1003365;-84
2024/01/17 11:27:42;;;;;;;32.50;17.90;;;;;;;-128.00;-1.00;-1.00;133510;1275;1004874;-83
2024/01/17 11:30:44;;;;;;;31.80;16.20;;;;;;;-128.00;-1.00;-1.00;133468;1275;1004499;-83
2024/01/17 11:33:47;;;;;;;30.40;18.40;;;;;;;-128.00;-1.00;-1.00;133165;1275;1003989;-82
2024/01/17 11:36:49;;;;;;;27.70;17.30;;;;;;;-128.00;-1.00;-1.00;133444;1275;1005069;-84
2024/01/17 11:39:52;;;;;;;23.50;15.50;;;;;;;-128.00;-1.00;-1.00;133453;1275;1004984;-83
2024/01/17 11:42:55;;;;;;;31.20;17.20;;;;;;;-128.00;-1.00;-1.00;133217;1275;1005131;-82
2024/01/17 11:45:59;;;;;;;26.80;17.90;;;;;;;-128.00;-1.00;-1.00;133364;1275;1004008;-81
2024/01/17 11:49:02;;;;;;;24.80;17.30;;;;;;;-128.00;-1.00;-1.00;133518;1275;1004341;-83
2024/01/17 11:52:05;;;;;;;28.40;18.20;;;;;;;-128.00;-1.00;-1.00;132890;1275;1003937;-83
2024/01/17 11:55:07;;;;;;;25.40;18.30;;;;;;;-128.00;-1.00;-1.00;133276;1275;1004269;-82
2024/01/17 11:58:10;;;;;;;31.50;18.20;;;;;;;-128.00;-1.00;-1.00;133564;1275;1004397;-83
2024/01/17 12:01:13;;;;;;;27.00;16.90;;;;;;;-128.00;-1.00;-1.00;133613;1275;1003406;-82
2024/01/17 12:04:15;;;;;;;22.70;15.50;;;;;;;-128.00;-1.00;-1.00;133563;1275;1004496;-82
2024/01/17 12:07:18;;;;;;;30.50;15.80;;;;;;;-128.00;-1.00;-1.00;133514;1275;1004327;-82
2024/01/17 12:10:20;;;;;;;29.40;18.70;;;;;;;-128.00;-1.00;-1.00;133555;1275;1004607;-83
2024/01/17 12:13:23;;;;;;;28.10;16.80;;;;;;;-128.00;-1.00;-1.00;133303;1275;1005241;-83
2024/01/17 12:16:25;;;;;;;28.40;17.50;;;;;;;-128.00;-1.00;-1.00;133430;1275;1004745;-82
2024/01/17 12:19:28;;;;;;;26.90;16.60;;;;;;;-128.00;-1.00;-1.00;133477;1275;1004986;-81
2024/01/17 12:22:31;;;;;;;30.90;18.10;;;;;;;-128.00;-1.00;-1.00;133481;1275;1003884;-82
2024/01/17 12:25:33;;;;;;;29.20;18.00;;;;;;;-128.00;-1.00;-1.00;133454;1275;1004709;-83
2024/01/17 12:28:38;;;;;;;32.10;17.40;;;;;;;-128.00;-1.00;-1.00;133471;1275;1004083;-83
2024/01/17 12:31:44;;;;;;;31.70;17.80;;;;;;;-128.00;-1.00;-1.00;133419;1275;1004632;-83
2024/01/17 12:34:47;;;;;;;28.50;17.30;;;;;;;-128.00;-1.00;-1.00;133432;1275;1004370;-81
2024/01/17 12:37:49;;;;;;;27.30;16.50;;;;;;;-128.00;-1.00;-1.00;133496;1275;1004140;-84
2024/01/17 12:40:52;;;;;;;31.60;17.90;;;;;;;-128.00;-1.00;-1.00;133505;1275;1003499;-82
2024/01/17 12:43:55;;;;;;;33.80;19.10;;;;;;;-128.00;-1.00;-1.00;133462;1275;1004399;-82
2024/01/17 12:46:57;;;;;;;33.90;18.90;;;;;;;-128.00;-1.00;-1.00;133469;1275;1004991;-82
2024/01/17 12:50:00;;;;;;;32.60;18.90;;;;;;;-128.00;-1.00;-1.00;133085;1275;1004354;-84
2024/01/17 12:53:03;;;;;;;35.00;18.60;;;;;;;-128.00;-1.00;-1.00;133511;1275;1003368;-82
2024/01/17 12:56:06;;;;;;;29.90;16.00;;;;;;;-128.00;-1.00;-1.00;133502;1275;1004169;-82
2024/01/17 12:59:09;;;;;;;32.00;17.20;;;;;;;-128.00;-1.00;-1.00;133488;1275;1003789;-82
2024/01/17 13:02:15;;;;;;;27.00;16.50;;;;;;;-128.00;-1.00;-1.00;133450;1275;1004732;-82
2024/01/17 13:05:17;;;;;;;29.20;17.20;;;;;;;-128.00;-1.00;-1.00;133455;1275;1004903;-81
2024/01/17 13:08:20;;;;;;;26.50;16.30;;;;;;;-128.00;-1.00;-1.00;133383;1260;1004033;-81
2024/01/17 13:11:24;;;;;;;28.00;16.70;;;;;;;-128.00;-1.00;-1.00;133432;1275;1003984;-81
2024/01/17 13:14:29;;;;;;;29.70;16.80;;;;;;;-128.00;-1.00;-1.00;133404;1275;1004736;-81
2024/01/17 13:17:32;;;;;;;30.00;16.40;;;;;;;-128.00;-1.00;-1.00;133387;1275;1004792;-80
2024/01/17 13:20:34;;;;;;;29.20;16.50;;;;;;;-128.00;-1.00;-1.00;133408;1275;1003711;-81
2024/01/17 13:23:37;;;;;;;26.20;16.80;;;;;;;-128.00;-1.00;-1.00;133380;1275;1004609;-80
2024/01/17 13:26:39;;;;;;;27.40;16.70;;;;;;;-128.00;-1.00;-1.00;133346;1275;1004125;-81
2024/01/17 13:29:42;;;;;;;28.90;17.20;;;;;;;-128.00;-1.00;-1.00;133297;1276;1004473;-81
2024/01/17 13:32:46;;;;;;;31.10;17.00;;;;;;;-128.00;-1.00;-1.00;133274;1276;1003865;-80
2024/01/17 13:35:50;;;;;;;28.50;15.60;;;;;;;-128.00;-1.00;-1.00;133343;1276;1005001;-80
2024/01/17 13:38:53;;;;;;;31.30;17.40;;;;;;;-128.00;-1.00;-1.00;133360;1276;1004838;-84